createdAt,value
2017-05-29T00:00:34.178Z,2.82
2017-05-29T00:03:02.410Z,3.28
2017-05-29T00:05:30.637Z,3.12
2017-05-29T00:07:58.905Z,3.44
2017-05-29T00:10:27.893Z,2.98
2017-05-29T00:12:56.145Z,3.08
2017-05-29T00:15:24.414Z,2.90
2017-05-29T00:17:52.648Z,3.00
2017-05-29T00:20:20.892Z,3.34
2017-05-29T00:22:49.166Z,2.72
2017-05-29T00:25:17.386Z,2.80
2017-05-29T00:27:45.619Z,3.10
2017-05-29T00:30:13.909Z,2.88
2017-05-29T00:33:07.860Z,2.72
2017-05-29T00:35:36.130Z,3.20
2017-05-29T00:38:10.128Z,3.00
2017-05-29T00:40:38.539Z,2.98
2017-05-29T00:43:06.757Z,3.14
2017-05-29T00:45:35.001Z,3.32
2017-05-29T00:48:03.277Z,3.02
2017-05-29T00:50:31.504Z,2.78
2017-05-29T00:52:59.716Z,3.02
2017-05-29T00:55:27.989Z,3.04
2017-05-29T00:57:56.220Z,3.24
2017-05-29T01:00:24.449Z,3.08
2017-05-29T01:03:09.138Z,3.14
2017-05-29T01:08:36.949Z,2.78
2017-05-29T01:11:05.198Z,3.14
2017-05-29T01:13:33.451Z,3.10
2017-05-29T01:16:01.732Z,3.06
2017-05-29T01:18:29.968Z,2.92
2017-05-29T01:20:58.213Z,2.86
2017-05-29T01:26:25.943Z,3.44
2017-05-29T01:29:08.805Z,2.68
2017-05-29T01:37:36.872Z,2.60
2017-05-29T01:40:05.101Z,2.80
2017-05-29T01:42:33.334Z,2.96
2017-05-29T01:45:09.754Z,2.72
2017-05-29T01:48:08.067Z,2.58
2017-05-29T01:50:36.329Z,3.34
2017-05-29T01:53:04.553Z,2.70
2017-05-29T01:55:32.778Z,2.90
2017-05-29T01:58:01.210Z,2.58
2017-05-29T02:00:29.430Z,2.88
2017-05-29T02:02:57.667Z,3.00
2017-05-29T02:05:25.953Z,2.74
2017-05-29T02:07:54.199Z,2.50
2017-05-29T02:10:22.430Z,2.32
2017-05-29T02:13:10.253Z,3.18
2017-05-29T02:18:38.178Z,3.20
2017-05-29T02:21:07.290Z,2.98
2017-05-29T02:23:35.527Z,2.30
2017-05-29T02:26:09.644Z,2.56
2017-05-29T02:28:37.869Z,2.72
2017-05-29T02:31:06.093Z,2.78
2017-05-29T02:33:34.354Z,2.44
2017-05-29T02:36:02.582Z,2.70
2017-05-29T02:38:30.803Z,2.64
2017-05-29T02:41:11.682Z,2.60
2017-05-29T02:46:40.495Z,3.02
2017-05-29T02:49:08.810Z,2.90
2017-05-29T02:51:37.029Z,2.68
2017-05-29T02:54:05.285Z,3.16
2017-05-29T02:56:33.529Z,3.04
2017-05-29T02:59:03.005Z,2.50
2017-05-29T03:01:31.267Z,3.30
2017-05-29T03:03:59.504Z,2.78
2017-05-29T03:06:27.726Z,3.18
2017-05-29T03:12:09.438Z,3.18
2017-05-29T03:14:37.663Z,3.04
2017-05-29T03:17:05.938Z,2.46
2017-05-29T03:19:34.196Z,3.56
2017-05-29T03:22:02.423Z,2.90
2017-05-29T03:24:30.649Z,2.76
2017-05-29T03:26:58.923Z,2.88
2017-05-29T03:29:27.155Z,2.38
2017-05-29T03:31:55.377Z,2.74
2017-05-29T03:34:23.662Z,2.86
2017-05-29T03:37:11.432Z,2.78
2017-05-29T03:39:39.694Z,2.80
2017-05-29T03:42:07.920Z,2.86
2017-05-29T03:44:36.156Z,2.78
2017-05-29T03:47:04.439Z,2.48
2017-05-29T03:52:32.520Z,2.68
2017-05-29T03:55:00.776Z,2.66
2017-05-29T03:57:29.015Z,3.14
2017-05-29T03:59:57.942Z,3.52
2017-05-29T04:02:26.170Z,4.20
2017-05-29T04:05:09.526Z,4.22
2017-05-29T04:07:37.751Z,2.82
2017-05-29T04:10:05.978Z,3.28
2017-05-29T04:12:34.249Z,3.34
2017-05-29T04:15:02.482Z,2.98
2017-05-29T04:17:30.710Z,3.40
2017-05-29T04:19:58.959Z,3.22
2017-05-29T04:22:27.185Z,3.02
2017-05-29T04:24:55.411Z,3.32
2017-05-29T04:27:23.681Z,3.12
2017-05-29T04:29:51.910Z,3.46
2017-05-29T04:32:20.133Z,2.76
2017-05-29T04:35:08.552Z,3.38
2017-05-29T04:37:36.789Z,2.96
2017-05-29T04:40:05.023Z,2.90
2017-05-29T04:42:33.313Z,3.20
2017-05-29T04:45:01.558Z,3.28
2017-05-29T04:50:29.767Z,2.50
2017-05-29T04:52:57.995Z,3.06
2017-05-29T04:55:26.221Z,3.78
2017-05-29T04:57:54.490Z,2.60
2017-05-29T05:00:22.764Z,3.46
2017-05-29T05:02:50.999Z,3.10
2017-05-29T05:05:19.257Z,3.28
2017-05-29T05:07:47.477Z,3.36
2017-05-29T05:10:15.706Z,3.06
2017-05-29T05:12:43.965Z,3.30
2017-05-29T05:15:12.198Z,3.38
2017-05-29T05:18:08.363Z,2.76
2017-05-29T05:20:36.608Z,3.64
2017-05-29T05:23:04.839Z,3.50
2017-05-29T05:25:33.101Z,3.74
2017-05-29T05:28:09.204Z,3.42
2017-05-29T05:30:37.475Z,3.48
2017-05-29T05:33:05.702Z,4.46
2017-05-29T05:35:33.931Z,4.42
2017-05-29T05:38:02.206Z,4.28
2017-05-29T05:40:30.449Z,4.14
2017-05-29T05:43:11.129Z,4.36
2017-05-29T05:45:39.366Z,4.24
2017-05-29T05:48:07.621Z,4.42
2017-05-29T05:50:35.908Z,6.06
2017-05-29T05:53:04.148Z,4.16
2017-05-29T05:55:32.370Z,3.98
2017-05-29T05:58:00.649Z,3.90
2017-05-29T06:00:28.930Z,3.68
2017-05-29T06:02:57.164Z,4.92
2017-05-29T06:05:25.446Z,3.42
2017-05-29T06:07:53.682Z,3.10
2017-05-29T06:10:38.997Z,2.54
2017-05-29T06:13:07.235Z,2.48
2017-05-29T06:18:35.565Z,2.78
2017-05-29T06:21:09.774Z,2.86
2017-05-29T06:24:08.131Z,2.48
2017-05-29T06:26:56.242Z,2.14
2017-05-29T06:35:24.769Z,2.56
2017-05-29T06:38:09.517Z,2.28
2017-05-29T06:40:37.783Z,2.50
2017-05-29T06:43:12.173Z,2.60
2017-05-29T06:45:54.552Z,2.08
2017-05-29T06:51:22.362Z,2.54
2017-05-29T06:54:00.472Z,3.88
2017-05-29T06:56:32.997Z,2.60
2017-05-29T06:59:09.500Z,3.12
2017-05-29T07:05:08.189Z,2.72
2017-05-29T07:07:40.239Z,2.56
2017-05-29T07:16:10.698Z,2.56
2017-05-29T07:31:10.569Z,3.40
2017-05-29T07:34:08.345Z,3.50
2017-05-29T07:42:52.680Z,2.86
2017-05-29T07:45:20.985Z,2.90
2017-05-29T07:48:09.243Z,2.78
2017-05-29T07:54:08.439Z,2.72
2017-05-29T08:11:32.965Z,3.10
2017-05-29T08:14:10.919Z,2.94
2017-05-29T08:17:09.177Z,3.48
2017-05-29T08:47:11.706Z,3.16
2017-05-29T08:49:55.495Z,3.00
2017-05-29T08:58:30.032Z,2.58
2017-05-29T09:01:11.770Z,2.58
2017-05-29T09:04:08.451Z,2.82
2017-05-29T09:12:58.610Z,3.02
2017-05-29T09:42:35.900Z,3.24
2017-05-29T09:45:11.305Z,3.06
2017-05-29T09:56:47.589Z,4.04
2017-05-29T09:59:18.729Z,3.04
2017-05-29T10:02:09.222Z,4.08
2017-05-29T10:10:39.335Z,3.54
2017-05-29T10:13:10.070Z,3.84
2017-05-29T10:16:09.526Z,3.10
2017-05-29T10:33:26.603Z,2.90
2017-05-29T10:44:59.177Z,3.94
2017-05-29T11:05:56.182Z,2.72
2017-05-29T11:08:25.365Z,2.82
2017-05-29T11:14:10.042Z,2.94
2017-05-29T11:17:08.970Z,3.10
2017-05-29T11:25:54.057Z,3.20
2017-05-29T11:43:27.555Z,2.68
2017-05-29T11:46:10.290Z,2.96
2017-05-29T11:49:09.825Z,3.72
2017-05-29T12:04:09.571Z,3.60
2017-05-29T12:07:08.711Z,3.88
2017-05-29T12:34:47.380Z,3.20
2017-05-29T12:43:17.546Z,3.72
2017-05-29T12:46:10.422Z,3.16
2017-05-29T12:49:09.716Z,3.20
2017-05-29T12:52:08.576Z,2.92
2017-05-29T13:01:08.639Z,3.50
2017-05-29T13:12:58.663Z,3.46
2017-05-29T13:21:29.434Z,3.08
2017-05-29T13:32:11.065Z,3.10
2017-05-29T13:37:57.599Z,4.00
2017-05-29T13:46:29.319Z,3.80
2017-05-29T13:55:09.629Z,3.36
2017-05-29T13:58:08.899Z,3.40
2017-05-29T14:00:37.994Z,3.14
2017-05-29T14:03:07.113Z,4.12
2017-05-29T14:05:36.149Z,3.50
2017-05-29T14:08:05.272Z,3.92
2017-05-29T14:10:34.261Z,3.58
2017-05-29T14:13:10.445Z,4.16
2017-05-29T14:15:39.520Z,4.22
2017-05-29T14:18:08.510Z,4.28
2017-05-29T14:20:37.566Z,3.86
2017-05-29T14:23:12.664Z,4.16
2017-05-29T14:25:41.725Z,3.98
2017-05-29T14:28:10.820Z,4.96
2017-05-29T14:30:39.812Z,4.64
2017-05-29T14:33:32.216Z,4.62
2017-05-29T14:36:11.514Z,4.24
2017-05-29T14:38:40.529Z,3.90
2017-05-29T14:41:09.526Z,3.90
2017-05-29T14:43:38.549Z,4.12
2017-05-29T14:46:07.537Z,3.64
2017-05-29T14:48:36.551Z,4.80
2017-05-29T14:51:05.599Z,3.84
2017-05-29T14:53:34.685Z,4.48
2017-05-29T14:56:13.871Z,4.06
2017-05-29T14:58:42.966Z,4.26
2017-05-29T15:04:01.852Z,4.50
2017-05-29T15:06:30.894Z,4.60
2017-05-29T15:09:09.967Z,4.64
2017-05-29T15:11:40.323Z,5.24
2017-05-29T15:14:09.491Z,5.10
2017-05-29T15:16:39.433Z,4.80
2017-05-29T15:19:12.118Z,4.56
2017-05-29T15:21:42.461Z,5.14
2017-05-29T15:24:11.625Z,5.24
2017-05-29T15:26:40.752Z,6.62
2017-05-29T15:29:11.229Z,7.74
2017-05-29T15:31:41.657Z,9.14
2017-05-29T15:34:10.838Z,8.30
2017-05-29T15:37:10.838Z,9.10
2017-05-29T15:40:09.622Z,7.40
2017-05-29T15:42:45.394Z,9.28
2017-05-29T15:45:14.657Z,7.06
2017-05-29T15:47:48.582Z,7.40
2017-05-29T15:50:18.000Z,7.34
2017-05-29T15:52:47.034Z,7.28
2017-05-29T15:55:16.514Z,5.40
2017-05-29T15:58:09.682Z,6.94
2017-05-29T16:00:38.677Z,5.92
2017-05-29T16:03:07.717Z,4.42
2017-05-29T16:05:36.734Z,5.60
2017-05-29T16:08:06.197Z,5.80
2017-05-29T16:10:35.260Z,4.92
2017-05-29T16:13:04.354Z,9.46
2017-05-29T16:15:33.415Z,5.82
2017-05-29T16:18:00.524Z,6.26
2017-05-29T16:20:27.673Z,6.10
2017-05-29T16:22:54.797Z,5.04
2017-05-29T16:25:22.073Z,5.38
2017-05-29T16:27:49.168Z,5.64
2017-05-29T16:30:16.281Z,4.98
2017-05-29T16:32:43.370Z,5.68
2017-05-29T16:35:25.457Z,5.34
2017-05-29T16:38:08.517Z,5.50
2017-05-29T16:40:50.606Z,5.32
2017-05-29T16:43:17.693Z,5.28
2017-05-29T16:45:44.781Z,5.80
2017-05-29T16:48:11.915Z,5.42
2017-05-29T16:50:39.022Z,5.66
2017-05-29T16:53:06.140Z,6.76
2017-05-29T16:55:33.264Z,6.50
2017-05-29T16:58:00.349Z,6.10
2017-05-29T17:00:27.438Z,4.62
2017-05-29T17:02:54.560Z,6.66
2017-05-29T17:05:21.674Z,7.00
2017-05-29T17:07:48.771Z,5.10
2017-05-29T17:10:16.210Z,7.88
2017-05-29T17:12:43.313Z,5.66
2017-05-29T17:15:10.417Z,7.06
2017-05-29T17:17:37.566Z,6.68
2017-05-29T17:20:04.661Z,6.60
2017-05-29T17:25:33.134Z,6.12
2017-05-29T17:28:00.976Z,5.92
2017-05-29T17:30:28.066Z,5.76
2017-05-29T17:32:55.201Z,4.74
2017-05-29T17:35:22.317Z,7.88
2017-05-29T17:38:10.115Z,5.10
2017-05-29T17:40:37.637Z,6.12
2017-05-29T17:43:04.718Z,5.22
2017-05-29T17:45:31.859Z,6.00
2017-05-29T17:47:58.984Z,4.94
2017-05-29T17:50:26.080Z,6.56
2017-05-29T17:53:08.701Z,6.52
2017-05-29T17:55:35.804Z,6.86
2017-05-29T17:58:02.984Z,6.64
2017-05-29T18:00:30.725Z,5.02
2017-05-29T18:03:08.405Z,4.96
2017-05-29T18:05:36.161Z,6.78
2017-05-29T18:08:03.249Z,5.72
2017-05-29T18:10:30.394Z,7.88
2017-05-29T18:12:57.547Z,5.30
2017-05-29T18:15:24.666Z,7.68
2017-05-29T18:17:51.757Z,7.46
2017-05-29T18:20:18.842Z,7.48
2017-05-29T18:22:45.973Z,6.98
2017-05-29T18:25:13.045Z,6.82
2017-05-29T18:27:40.269Z,4.70
2017-05-29T18:30:07.577Z,5.50
2017-05-29T18:32:34.662Z,6.30
2017-05-29T18:37:45.039Z,7.22
2017-05-29T18:40:27.165Z,5.80
2017-05-29T18:42:54.335Z,6.88
2017-05-29T18:45:36.401Z,6.52
2017-05-29T18:48:09.973Z,5.66
2017-05-29T18:50:37.113Z,5.52
2017-05-29T18:53:10.769Z,5.48
2017-05-29T18:55:37.918Z,6.30
2017-05-29T18:58:05.019Z,4.66
2017-05-29T19:00:32.158Z,5.62
2017-05-29T19:02:59.298Z,5.38
2017-05-29T19:05:26.389Z,6.00
2017-05-29T19:07:53.637Z,5.82
2017-05-29T19:10:20.753Z,5.00
2017-05-29T19:12:48.624Z,5.86
2017-05-29T19:15:15.720Z,4.84
2017-05-29T19:18:10.733Z,5.90
2017-05-29T19:20:37.804Z,5.72
2017-05-29T19:23:04.882Z,4.90
2017-05-29T19:25:32.048Z,4.98
2017-05-29T19:27:59.460Z,5.20
2017-05-29T19:30:26.772Z,4.96
2017-05-29T19:32:53.955Z,4.76
2017-05-29T19:35:21.050Z,5.94
2017-05-29T19:37:48.133Z,7.58
2017-05-29T19:40:15.255Z,7.64
2017-05-29T19:42:42.347Z,7.70
2017-05-29T19:45:09.452Z,6.62
2017-05-29T19:47:36.648Z,7.08
2017-05-29T19:50:03.757Z,7.36
2017-05-29T19:52:32.154Z,10.88
2017-05-29T19:55:00.134Z,6.32
2017-05-29T20:00:28.328Z,7.10
2017-05-29T20:02:55.467Z,6.20
2017-05-29T20:05:22.577Z,5.90
2017-05-29T20:07:49.739Z,6.72
2017-05-29T20:10:16.844Z,7.16
2017-05-29T20:13:11.277Z,5.94
2017-05-29T20:15:38.374Z,5.10
2017-05-29T20:18:05.457Z,4.52
2017-05-29T20:20:33.235Z,7.52
2017-05-29T20:23:00.538Z,8.38
2017-05-29T20:25:27.637Z,12.04
2017-05-29T20:27:54.861Z,14.64
2017-05-29T20:30:22.257Z,8.04
2017-05-29T20:32:49.359Z,6.46
2017-05-29T20:35:16.516Z,6.64
2017-05-29T20:37:43.592Z,7.26
2017-05-29T20:40:10.738Z,8.18
2017-05-29T20:43:09.445Z,6.74
2017-05-29T20:45:36.523Z,5.70
2017-05-29T20:48:03.615Z,8.20
2017-05-29T20:50:30.754Z,7.02
2017-05-29T20:52:57.842Z,6.86
2017-05-29T20:55:24.997Z,5.20
2017-05-29T20:58:10.025Z,6.18
2017-05-29T21:00:37.118Z,6.00
2017-05-29T21:03:25.596Z,5.50
2017-05-29T21:05:52.701Z,4.88
2017-05-29T21:08:19.906Z,7.00
2017-05-29T21:10:47.042Z,8.60
2017-05-29T21:13:14.127Z,10.98
2017-05-29T21:15:41.219Z,6.66
2017-05-29T21:18:08.375Z,7.00
2017-05-29T21:20:35.457Z,7.82
2017-05-29T21:26:03.718Z,5.68
2017-05-29T21:28:30.841Z,8.98
2017-05-29T21:31:11.756Z,5.92
2017-05-29T21:34:08.346Z,5.82
2017-05-29T21:36:37.269Z,8.96
2017-05-29T21:39:10.645Z,6.58
2017-05-29T21:42:09.296Z,8.44
2017-05-29T21:47:37.601Z,6.12
2017-05-29T21:50:11.206Z,6.14
2017-05-29T21:52:38.329Z,6.92
2017-05-29T21:55:05.398Z,6.56
2017-05-29T21:57:32.479Z,5.08
2017-05-29T22:00:09.901Z,6.14
2017-05-29T22:02:36.992Z,4.82
2017-05-29T22:05:11.030Z,6.16
2017-05-29T22:07:38.130Z,8.00
2017-05-29T22:10:08.800Z,7.48
2017-05-29T22:12:35.955Z,5.74
2017-05-29T22:15:10.170Z,5.72
2017-05-29T22:18:09.309Z,8.26
2017-05-29T22:20:36.399Z,12.52
2017-05-29T22:23:03.507Z,6.14
2017-05-29T22:25:30.638Z,14.80
2017-05-29T22:27:57.740Z,8.24
2017-05-29T22:30:24.845Z,5.88
2017-05-29T22:33:10.585Z,6.14
2017-05-29T22:35:37.773Z,5.50
2017-05-29T22:38:04.867Z,6.30
2017-05-29T22:40:32.405Z,6.06
2017-05-29T22:42:59.493Z,5.46
2017-05-29T22:48:28.122Z,6.66
2017-05-29T22:50:55.206Z,5.40
2017-05-29T22:53:22.313Z,5.10
2017-05-29T22:55:49.431Z,5.68
2017-05-29T22:58:16.523Z,5.48
2017-05-29T23:00:43.627Z,7.66
2017-05-29T23:03:10.779Z,7.66
2017-05-29T23:05:37.880Z,6.38
2017-05-29T23:08:05.022Z,5.30
2017-05-29T23:10:32.168Z,5.18
2017-05-29T23:12:59.241Z,5.76
2017-05-29T23:15:26.305Z,5.82
2017-05-29T23:18:09.580Z,10.14
2017-05-29T23:20:36.686Z,7.72
2017-05-29T23:23:03.778Z,5.22
2017-05-29T23:25:31.267Z,13.76
2017-05-29T23:28:09.305Z,7.06
2017-05-29T23:30:36.443Z,7.14
2017-05-29T23:33:03.549Z,6.70
2017-05-29T23:38:31.561Z,7.80
2017-05-29T23:41:09.282Z,6.80
2017-05-29T23:43:36.433Z,17.36
2017-05-29T23:49:10.916Z,11.28
2017-05-29T23:51:38.659Z,9.84
2017-05-29T23:54:05.738Z,8.94
2017-05-29T23:56:32.875Z,7.96
2017-05-29T23:58:59.979Z,10.38
